sensor_id;sensor_type;location;lat;lon;timestamp;pressure;altitude;pressure_sealevel;temperature;humidity
61136;BME280;47021;51.340;12.432;2023-09-08T00:12:15;100645.03;;;22.20;56.69
61136;BME280;47021;51.340;12.432;2023-09-08T00:20:08;100650.53;;;21.97;57.34
61136;BME280;47021;51.340;12.432;2023-09-08T00:22:41;100640.47;;;22.14;56.52
61136;BME280;47021;51.340;12.432;2023-09-08T00:25:14;100641.84;;;21.74;58.31
61136;BME280;47021;51.340;12.432;2023-09-08T00:27:40;100637.16;;;21.76;57.78
61136;BME280;47021;51.340;12.432;2023-09-08T00:32:49;100632.22;;;22.09;57.59
61136;BME280;47021;51.340;12.432;2023-09-08T00:35:16;100641.28;;;22.14;56.88
61136;BME280;47021;51.340;12.432;2023-09-08T00:37:41;100638.63;;;22.14;56.60
61136;BME280;47021;51.340;12.432;2023-09-08T00:40:14;100638.69;;;22.00;57.37
61136;BME280;47021;51.340;12.432;2023-09-08T00:42:39;100638.53;;;21.87;57.27
61136;BME280;47021;51.340;12.432;2023-09-08T00:47:44;100635.69;;;21.88;57.49
61136;BME280;47021;51.340;12.432;2023-09-08T00:53:00;100642.75;;;21.66;57.09
61136;BME280;47021;51.340;12.432;2023-09-08T00:58:11;100641.50;;;21.62;57.81
61136;BME280;47021;51.340;12.432;2023-09-08T01:00:37;100641.75;;;21.67;58.32
61136;BME280;47021;51.340;12.432;2023-09-08T01:03:04;100636.50;;;21.38;58.87
61136;BME280;47021;51.340;12.432;2023-09-08T01:08:13;100641.06;;;21.44;58.12
61136;BME280;47021;51.340;12.432;2023-09-08T01:10:56;100640.97;;;21.38;58.44
61136;BME280;47021;51.340;12.432;2023-09-08T01:13:27;100633.44;;;21.41;57.96
61136;BME280;47021;51.340;12.432;2023-09-08T01:15:58;100641.25;;;21.43;57.97
61136;BME280;47021;51.340;12.432;2023-09-08T01:18:36;100635.25;;;21.55;57.76
61136;BME280;47021;51.340;12.432;2023-09-08T01:26:44;100639.31;;;21.37;58.23
61136;BME280;47021;51.340;12.432;2023-09-08T01:29:10;100631.78;;;21.55;57.79
61136;BME280;47021;51.340;12.432;2023-09-08T01:31:36;100636.28;;;21.40;57.97
61136;BME280;47021;51.340;12.432;2023-09-08T01:34:02;100634.75;;;21.31;58.58
61136;BME280;47021;51.340;12.432;2023-09-08T01:36:37;100636.13;;;21.27;58.68
61136;BME280;47021;51.340;12.432;2023-09-08T01:39:02;100628.31;;;21.25;59.47
61136;BME280;47021;51.340;12.432;2023-09-08T01:41:28;100633.34;;;21.35;58.68
61136;BME280;47021;51.340;12.432;2023-09-08T01:43:55;100624.47;;;21.42;58.72
61136;BME280;47021;51.340;12.432;2023-09-08T01:46:27;100624.84;;;21.39;58.64
61136;BME280;47021;51.340;12.432;2023-09-08T01:48:52;100625.66;;;21.40;58.70
61136;BME280;47021;51.340;12.432;2023-09-08T01:51:24;100624.47;;;21.28;59.05
61136;BME280;47021;51.340;12.432;2023-09-08T01:53:57;100621.38;;;21.09;59.06
61136;BME280;47021;51.340;12.432;2023-09-08T01:56:23;100624.22;;;21.08;58.74
61136;BME280;47021;51.340;12.432;2023-09-08T02:01:35;100617.97;;;21.16;59.42
61136;BME280;47021;51.340;12.432;2023-09-08T02:04:02;100614.66;;;21.14;59.02
61136;BME280;47021;51.340;12.432;2023-09-08T02:06:33;100623.19;;;21.09;58.77
61136;BME280;47021;51.340;12.432;2023-09-08T02:08:58;100621.16;;;21.11;59.17
61136;BME280;47021;51.340;12.432;2023-09-08T02:11:30;100621.31;;;20.95;59.56
61136;BME280;47021;51.340;12.432;2023-09-08T02:14:02;100624.16;;;20.93;59.59
61136;BME280;47021;51.340;12.432;2023-09-08T02:16:28;100619.78;;;21.00;59.69
61136;BME280;47021;51.340;12.432;2023-09-08T02:21:37;100617.47;;;20.97;59.75
61136;BME280;47021;51.340;12.432;2023-09-08T02:24:05;100621.69;;;20.92;59.51
61136;BME280;47021;51.340;12.432;2023-09-08T02:26:46;100623.13;;;20.80;59.81
61136;BME280;47021;51.340;12.432;2023-09-08T02:29:13;100619.75;;;20.86;59.49
61136;BME280;47021;51.340;12.432;2023-09-08T02:31:38;100621.94;;;20.82;59.74
61136;BME280;47021;51.340;12.432;2023-09-08T02:34:17;100619.75;;;20.86;59.44
61136;BME280;47021;51.340;12.432;2023-09-08T02:36:50;100619.66;;;20.79;59.43
61136;BME280;47021;51.340;12.432;2023-09-08T02:39:17;100623.03;;;20.73;59.76
61136;BME280;47021;51.340;12.432;2023-09-08T02:41:43;100620.63;;;20.64;59.51
61136;BME280;47021;51.340;12.432;2023-09-08T04:15:35;100602.41;;;20.01;61.09
61136;BME280;47021;51.340;12.432;2023-09-08T04:18:00;100602.25;;;20.17;60.82
61136;BME280;47021;51.340;12.432;2023-09-08T04:20:37;100604.78;;;20.10;60.42
61136;BME280;47021;51.340;12.432;2023-09-08T04:23:02;100600.84;;;19.84;60.89
61136;BME280;47021;51.340;12.432;2023-09-08T04:25:28;100606.00;;;19.77;60.95
61136;BME280;47021;51.340;12.432;2023-09-08T04:27:53;100600.47;;;19.64;61.65
61136;BME280;47021;51.340;12.432;2023-09-08T04:33:02;100594.13;;;19.73;61.62
61136;BME280;47021;51.340;12.432;2023-09-08T04:35:34;100600.75;;;19.69;61.86
61136;BME280;47021;51.340;12.432;2023-09-08T04:38:02;100599.16;;;19.83;61.29
61136;BME280;47021;51.340;12.432;2023-09-08T04:40:34;100598.69;;;20.10;60.40
61136;BME280;47021;51.340;12.432;2023-09-08T04:43:02;100599.25;;;20.20;60.19
61136;BME280;47021;51.340;12.432;2023-09-08T04:45:29;100594.03;;;20.12;59.89
61136;BME280;47021;51.340;12.432;2023-09-08T04:48:00;100590.84;;;19.94;60.48
61136;BME280;47021;51.340;12.432;2023-09-08T04:50:27;100599.22;;;20.05;60.19
61136;BME280;47021;51.340;12.432;2023-09-08T04:52:58;100603.78;;;19.89;59.96
61136;BME280;47021;51.340;12.432;2023-09-08T04:55:26;100599.47;;;20.10;60.42
61136;BME280;47021;51.340;12.432;2023-09-08T04:57:53;100604.56;;;20.20;59.99
61136;BME280;47021;51.340;12.432;2023-09-08T05:00:19;100603.84;;;20.03;59.97
61136;BME280;47021;51.340;12.432;2023-09-08T05:02:45;100602.78;;;19.90;60.12
61136;BME280;47021;51.340;12.432;2023-09-08T05:05:12;100599.38;;;20.04;59.66
61136;BME280;47021;51.340;12.432;2023-09-08T05:07:38;100603.78;;;20.11;59.54
61136;BME280;47021;51.340;12.432;2023-09-08T05:10:03;100599.44;;;20.18;59.86
61136;BME280;47021;51.340;12.432;2023-09-08T05:12:35;100602.09;;;19.96;59.62
61136;BME280;47021;51.340;12.432;2023-09-08T05:15:02;100608.47;;;20.09;59.88
61136;BME280;47021;51.340;12.432;2023-09-08T05:17:29;100606.00;;;20.30;59.60
61136;BME280;47021;51.340;12.432;2023-09-08T05:20:02;100606.44;;;20.11;59.50
61136;BME280;47021;51.340;12.432;2023-09-08T05:22:27;100604.31;;;20.07;59.21
61136;BME280;47021;51.340;12.432;2023-09-08T05:27:38;100607.53;;;20.25;59.64
61136;BME280;47021;51.340;12.432;2023-09-08T05:32:49;100604.53;;;20.28;59.38
61136;BME280;47021;51.340;12.432;2023-09-08T05:35:32;100602.94;;;20.42;59.04
61136;BME280;47021;51.340;12.432;2023-09-08T05:38:03;100606.66;;;20.32;59.94
61136;BME280;47021;51.340;12.432;2023-09-08T05:43:12;100605.09;;;20.75;58.49
61136;BME280;47021;51.340;12.432;2023-09-08T05:45:39;100606.91;;;20.75;58.79
61136;BME280;47021;51.340;12.432;2023-09-08T05:48:10;100600.81;;;20.89;58.75
61136;BME280;47021;51.340;12.432;2023-09-08T05:50:36;100599.00;;;21.04;58.18
61136;BME280;47021;51.340;12.432;2023-09-08T05:53:01;100599.97;;;20.88;58.75
61136;BME280;47021;51.340;12.432;2023-09-08T05:55:39;100601.28;;;20.92;58.39
61136;BME280;47021;51.340;12.432;2023-09-08T05:58:10;100601.94;;;20.94;58.76
61136;BME280;47021;51.340;12.432;2023-09-08T06:03:06;100601.03;;;21.17;58.24
61136;BME280;47021;51.340;12.432;2023-09-08T06:05:38;100606.06;;;21.26;57.42
61136;BME280;47021;51.340;12.432;2023-09-08T06:08:12;100601.34;;;21.57;56.79
61136;BME280;47021;51.340;12.432;2023-09-08T06:10:40;100605.25;;;21.76;56.52
61136;BME280;47021;51.340;12.432;2023-09-08T06:13:05;100603.47;;;21.83;56.26
61136;BME280;47021;51.340;12.432;2023-09-08T06:15:36;100597.69;;;21.94;56.24
61136;BME280;47021;51.340;12.432;2023-09-08T06:18:03;100598.84;;;22.06;55.52
61136;BME280;47021;51.340;12.432;2023-09-08T06:20:44;100596.06;;;22.14;55.41
61136;BME280;47021;51.340;12.432;2023-09-08T06:23:09;100599.53;;;22.36;55.23
61136;BME280;47021;51.340;12.432;2023-09-08T06:25:35;100593.06;;;22.45;54.97
61136;BME280;47021;51.340;12.432;2023-09-08T06:28:08;100600.31;;;22.58;54.52
61136;BME280;47021;51.340;12.432;2023-09-08T06:30:33;100590.56;;;22.65;54.15
61136;BME280;47021;51.340;12.432;2023-09-08T06:32:58;100595.47;;;22.89;53.75
61136;BME280;47021;51.340;12.432;2023-09-08T06:35:26;100592.59;;;22.90;53.73
61136;BME280;47021;51.340;12.432;2023-09-08T06:37:52;100590.47;;;23.13;53.28
61136;BME280;47021;51.340;12.432;2023-09-08T06:40:36;100592.00;;;23.29;53.06
61136;BME280;47021;51.340;12.432;2023-09-08T06:45:53;100590.22;;;23.36;53.15
61136;BME280;47021;51.340;12.432;2023-09-08T06:48:20;100590.03;;;23.38;53.24
61136;BME280;47021;51.340;12.432;2023-09-08T06:50:47;100591.75;;;23.58;52.88
61136;BME280;47021;51.340;12.432;2023-09-08T06:53:14;100593.59;;;23.64;52.88
61136;BME280;47021;51.340;12.432;2023-09-08T06:55:47;100596.00;;;23.46;53.48
61136;BME280;47021;51.340;12.432;2023-09-08T06:58:13;100597.25;;;23.57;53.70
61136;BME280;47021;51.340;12.432;2023-09-08T07:00:47;100594.88;;;23.81;52.95
61136;BME280;47021;51.340;12.432;2023-09-08T07:03:13;100596.53;;;23.89;52.44
61136;BME280;47021;51.340;12.432;2023-09-08T07:05:39;100604.25;;;24.25;51.83
61136;BME280;47021;51.340;12.432;2023-09-08T07:08:05;100593.13;;;24.28;51.59
61136;BME280;47021;51.340;12.432;2023-09-08T07:10:38;100598.47;;;24.15;51.83
61136;BME280;47021;51.340;12.432;2023-09-08T07:13:03;100605.06;;;24.65;50.69
61136;BME280;47021;51.340;12.432;2023-09-08T07:15:29;100597.03;;;24.32;52.12
61136;BME280;47021;51.340;12.432;2023-09-08T07:17:57;100597.88;;;24.65;51.19
61136;BME280;47021;51.340;12.432;2023-09-08T07:20:28;100594.75;;;24.94;50.63
61136;BME280;47021;51.340;12.432;2023-09-08T07:22:53;100597.44;;;24.62;51.04
61136;BME280;47021;51.340;12.432;2023-09-08T07:25:18;100586.72;;;25.14;50.29
61136;BME280;47021;51.340;12.432;2023-09-08T07:27:49;100592.53;;;25.49;49.87
61136;BME280;47021;51.340;12.432;2023-09-08T07:30:16;100591.94;;;25.47;50.00
61136;BME280;47021;51.340;12.432;2023-09-08T07:32:41;100592.31;;;25.57;49.55
61136;BME280;47021;51.340;12.432;2023-09-08T07:35:13;100585.19;;;25.82;49.25
61136;BME280;47021;51.340;12.432;2023-09-08T07:37:46;100595.81;;;25.57;49.62
61136;BME280;47021;51.340;12.432;2023-09-08T10:05:38;100530.09;;;32.00;33.89
61136;BME280;47021;51.340;12.432;2023-09-08T12:42:54;100430.41;;;35.41;26.26
61136;BME280;47021;51.340;12.432;2023-09-08T12:45:21;100422.09;;;36.00;25.83
61136;BME280;47021;51.340;12.432;2023-09-08T12:47:49;100420.69;;;36.27;24.80
61136;BME280;47021;51.340;12.432;2023-09-08T12:50:15;100420.72;;;35.69;24.47
61136;BME280;47021;51.340;12.432;2023-09-08T12:52:40;100416.66;;;36.00;24.59
61136;BME280;47021;51.340;12.432;2023-09-08T12:55:12;100407.50;;;36.39;24.52
61136;BME280;47021;51.340;12.432;2023-09-08T13:00:35;100406.16;;;36.36;24.89
61136;BME280;47021;51.340;12.432;2023-09-08T13:05:53;100404.22;;;35.89;24.46
61136;BME280;47021;51.340;12.432;2023-09-08T13:16:44;100393.03;;;36.86;23.25
61136;BME280;47021;51.340;12.432;2023-09-08T13:19:13;100383.03;;;36.62;22.77
61136;BME280;47021;51.340;12.432;2023-09-08T13:21:52;100386.78;;;36.43;23.69
61136;BME280;47021;51.340;12.432;2023-09-08T13:27:21;100387.47;;;36.30;23.18
61136;BME280;47021;51.340;12.432;2023-09-08T13:41:00;100385.75;;;36.62;22.65
61136;BME280;47021;51.340;12.432;2023-09-08T14:00:03;100369.66;;;37.03;23.11
61136;BME280;47021;51.340;12.432;2023-09-08T14:05:26;100362.44;;;36.94;23.14
61136;BME280;47021;51.340;12.432;2023-09-08T14:24:14;100359.38;;;35.87;23.20
61136;BME280;47021;51.340;12.432;2023-09-08T14:26:47;100354.56;;;36.07;23.47
61136;BME280;47021;51.340;12.432;2023-09-08T14:29:32;100351.72;;;37.16;21.58
61136;BME280;47021;51.340;12.432;2023-09-08T14:31:58;100351.09;;;37.70;21.55
61136;BME280;47021;51.340;12.432;2023-09-08T14:34:23;100355.19;;;37.40;22.41
61136;BME280;47021;51.340;12.432;2023-09-08T14:37:00;100347.09;;;37.16;22.63
61136;BME280;47021;51.340;12.432;2023-09-08T14:39:26;100343.66;;;37.11;23.96
61136;BME280;47021;51.340;12.432;2023-09-08T14:42:10;100343.06;;;36.95;22.26
61136;BME280;47021;51.340;12.432;2023-09-08T14:47:19;100337.25;;;36.64;23.12
61136;BME280;47021;51.340;12.432;2023-09-08T14:49:50;100341.00;;;37.06;20.65
61136;BME280;47021;51.340;12.432;2023-09-08T14:54:59;100336.88;;;37.08;21.17
61136;BME280;47021;51.340;12.432;2023-09-08T14:57:26;100333.56;;;37.11;21.23
61136;BME280;47021;51.340;12.432;2023-09-08T14:59:52;100338.22;;;36.73;21.19
61136;BME280;47021;51.340;12.432;2023-09-08T15:02:18;100328.94;;;36.56;21.82
61136;BME280;47021;51.340;12.432;2023-09-08T15:04:44;100333.28;;;36.75;21.53
61136;BME280;47021;51.340;12.432;2023-09-08T15:07:10;100331.66;;;37.12;20.95
61136;BME280;47021;51.340;12.432;2023-09-08T15:09:49;100336.31;;;36.32;21.31
61136;BME280;47021;51.340;12.432;2023-09-08T15:12:26;100328.72;;;36.52;21.53
61136;BME280;47021;51.340;12.432;2023-09-08T15:14:51;100331.50;;;36.85;20.86
61136;BME280;47021;51.340;12.432;2023-09-08T15:17:23;100325.44;;;35.84;22.49
61136;BME280;47021;51.340;12.432;2023-09-08T15:19:56;100323.78;;;36.31;21.93
61136;BME280;47021;51.340;12.432;2023-09-08T15:22:33;100322.75;;;36.88;22.04
61136;BME280;47021;51.340;12.432;2023-09-08T15:25:04;100327.19;;;36.65;21.37
61136;BME280;47021;51.340;12.432;2023-09-08T15:27:38;100323.66;;;36.64;21.55
61136;BME280;47021;51.340;12.432;2023-09-08T15:30:03;100321.63;;;37.07;20.99
61136;BME280;47021;51.340;12.432;2023-09-08T15:32:37;100317.75;;;36.34;22.12
61136;BME280;47021;51.340;12.432;2023-09-08T15:35:03;100313.31;;;36.80;21.49
61136;BME280;47021;51.340;12.432;2023-09-08T15:37:36;100319.09;;;36.36;21.27
61136;BME280;47021;51.340;12.432;2023-09-08T15:42:31;100315.81;;;36.76;21.29
61136;BME280;47021;51.340;12.432;2023-09-08T15:44:58;100311.13;;;36.63;22.01
61136;BME280;47021;51.340;12.432;2023-09-08T15:47:24;100308.56;;;36.53;21.89
61136;BME280;47021;51.340;12.432;2023-09-08T15:49:49;100308.75;;;35.91;22.49
61136;BME280;47021;51.340;12.432;2023-09-08T15:54:50;100307.22;;;35.27;23.30
61136;BME280;47021;51.340;12.432;2023-09-08T15:57:16;100313.13;;;35.63;22.90
61136;BME280;47021;51.340;12.432;2023-09-08T15:59:41;100308.44;;;35.97;22.10
61136;BME280;47021;51.340;12.432;2023-09-08T16:02:06;100307.47;;;35.83;22.46
61136;BME280;47021;51.340;12.432;2023-09-08T16:07:00;100305.38;;;35.52;22.51
61136;BME280;47021;51.340;12.432;2023-09-08T16:09:26;100306.91;;;35.86;22.33
61136;BME280;47021;51.340;12.432;2023-09-08T16:11:53;100308.78;;;36.15;22.01
61136;BME280;47021;51.340;12.432;2023-09-08T16:14:18;100300.78;;;36.23;21.66
61136;BME280;47021;51.340;12.432;2023-09-08T16:16:50;100304.47;;;35.85;22.14
61136;BME280;47021;51.340;12.432;2023-09-08T16:19:16;100303.13;;;36.30;22.20
61136;BME280;47021;51.340;12.432;2023-09-08T16:24:42;100301.34;;;35.96;22.94
61136;BME280;47021;51.340;12.432;2023-09-08T16:30:09;100293.16;;;36.01;23.01
61136;BME280;47021;51.340;12.432;2023-09-08T16:32:34;100282.47;;;36.10;22.68
61136;BME280;47021;51.340;12.432;2023-09-08T16:43:15;100284.75;;;35.74;23.74
61136;BME280;47021;51.340;12.432;2023-09-08T16:45:42;100285.03;;;35.44;24.01
61136;BME280;47021;51.340;12.432;2023-09-08T16:48:10;100284.78;;;35.69;24.54
61136;BME280;47021;51.340;12.432;2023-09-08T16:50:35;100279.53;;;35.54;24.46
61136;BME280;47021;51.340;12.432;2023-09-08T16:56:05;100285.38;;;35.37;23.70
61136;BME280;47021;51.340;12.432;2023-09-08T16:58:52;100281.00;;;35.70;23.69
61136;BME280;47021;51.340;12.432;2023-09-08T17:01:24;100281.94;;;35.27;24.36
61136;BME280;47021;51.340;12.432;2023-09-08T17:04:11;100290.84;;;34.99;24.73
61136;BME280;47021;51.340;12.432;2023-09-08T17:06:49;100286.78;;;34.62;24.90
61136;BME280;47021;51.340;12.432;2023-09-08T17:09:14;100277.84;;;34.57;25.34
61136;BME280;47021;51.340;12.432;2023-09-08T17:11:54;100292.13;;;34.19;24.73
61136;BME280;47021;51.340;12.432;2023-09-08T17:14:20;100289.22;;;33.95;26.41
61136;BME280;47021;51.340;12.432;2023-09-08T17:16:45;100287.59;;;33.99;26.04
61136;BME280;47021;51.340;12.432;2023-09-08T17:19:12;100287.47;;;33.30;26.75
61136;BME280;47021;51.340;12.432;2023-09-08T17:21:38;100295.28;;;33.26;26.59
61136;BME280;47021;51.340;12.432;2023-09-08T17:24:05;100291.72;;;32.81;26.87
61136;BME280;47021;51.340;12.432;2023-09-08T17:26:43;100302.31;;;32.92;26.99
61136;BME280;47021;51.340;12.432;2023-09-08T17:29:08;100305.56;;;32.99;27.22
61136;BME280;47021;51.340;12.432;2023-09-08T17:31:49;100307.16;;;32.70;27.68
61136;BME280;47021;51.340;12.432;2023-09-08T17:34:18;100303.38;;;32.81;27.47
61136;BME280;47021;51.340;12.432;2023-09-08T17:36:43;100304.88;;;32.42;28.17
61136;BME280;47021;51.340;12.432;2023-09-08T17:39:14;100307.78;;;32.25;28.86
61136;BME280;47021;51.340;12.432;2023-09-08T17:41:41;100298.59;;;32.21;29.19
61136;BME280;47021;51.340;12.432;2023-09-08T17:44:06;100314.63;;;31.91;30.10
61136;BME280;47021;51.340;12.432;2023-09-08T17:46:37;100311.84;;;31.76;29.49
61136;BME280;47021;51.340;12.432;2023-09-08T17:49:04;100312.09;;;31.69;30.60
61136;BME280;47021;51.340;12.432;2023-09-08T17:51:29;100304.84;;;31.80;30.27
61136;BME280;47021;51.340;12.432;2023-09-08T17:54:02;100314.06;;;31.42;31.23
61136;BME280;47021;51.340;12.432;2023-09-08T17:56:34;100314.47;;;31.29;31.24
61136;BME280;47021;51.340;12.432;2023-09-08T17:58:59;100308.00;;;31.30;31.35
61136;BME280;47021;51.340;12.432;2023-09-08T18:01:26;100314.94;;;31.21;31.67
61136;BME280;47021;51.340;12.432;2023-09-08T18:03:52;100320.06;;;30.91;32.50
61136;BME280;47021;51.340;12.432;2023-09-08T18:06:17;100327.72;;;30.99;32.23
61136;BME280;47021;51.340;12.432;2023-09-08T18:08:50;100329.50;;;30.66;33.47
61136;BME280;47021;51.340;12.432;2023-09-08T18:11:15;100334.63;;;30.41;32.97
61136;BME280;47021;51.340;12.432;2023-09-08T18:13:40;100330.22;;;30.57;32.98
61136;BME280;47021;51.340;12.432;2023-09-08T18:16:06;100331.19;;;30.51;34.41
61136;BME280;47021;51.340;12.432;2023-09-08T18:18:32;100340.53;;;30.00;35.61
61136;BME280;47021;51.340;12.432;2023-09-08T18:21:04;100338.84;;;29.77;36.48
61136;BME280;47021;51.340;12.432;2023-09-08T18:23:29;100333.78;;;29.81;36.02
61136;BME280;47021;51.340;12.432;2023-09-08T18:25:55;100326.03;;;29.68;36.36
61136;BME280;47021;51.340;12.432;2023-09-08T18:28:20;100340.38;;;29.57;37.16
61136;BME280;47021;51.340;12.432;2023-09-08T18:30:49;100346.84;;;29.11;38.97
61136;BME280;47021;51.340;12.432;2023-09-08T18:33:22;100341.13;;;28.91;38.92
61136;BME280;47021;51.340;12.432;2023-09-08T18:35:47;100343.94;;;29.12;38.06
61136;BME280;47021;51.340;12.432;2023-09-08T18:38:19;100350.22;;;29.18;37.75
61136;BME280;47021;51.340;12.432;2023-09-08T18:40:47;100347.19;;;29.14;36.79
61136;BME280;47021;51.340;12.432;2023-09-08T18:43:13;100351.63;;;29.20;37.98
61136;BME280;47021;51.340;12.432;2023-09-08T18:45:43;100350.38;;;29.11;38.91
61136;BME280;47021;51.340;12.432;2023-09-08T22:50:31;100338.00;;;23.61;50.26
61136;BME280;47021;51.340;12.432;2023-09-08T22:53:02;100339.25;;;23.52;50.48
61136;BME280;47021;51.340;12.432;2023-09-08T22:55:27;100335.34;;;23.48;50.51
61136;BME280;47021;51.340;12.432;2023-09-08T22:57:53;100335.97;;;23.50;50.35
61136;BME280;47021;51.340;12.432;2023-09-08T23:00:26;100338.03;;;23.42;51.11
61136;BME280;47021;51.340;12.432;2023-09-08T23:02:53;100335.75;;;23.39;50.37
61136;BME280;47021;51.340;12.432;2023-09-08T23:05:26;100342.28;;;23.30;50.89
61136;BME280;47021;51.340;12.432;2023-09-08T23:07:53;100337.97;;;23.15;51.28
61136;BME280;47021;51.340;12.432;2023-09-08T23:10:19;100345.13;;;23.02;51.15
61136;BME280;47021;51.340;12.432;2023-09-08T23:12:45;100337.72;;;22.97;51.93
61136;BME280;47021;51.340;12.432;2023-09-08T23:15:10;100343.25;;;22.89;51.71
61136;BME280;47021;51.340;12.432;2023-09-08T23:17:35;100338.56;;;22.98;51.16
61136;BME280;47021;51.340;12.432;2023-09-08T23:22:44;100335.44;;;22.81;51.99
61136;BME280;47021;51.340;12.432;2023-09-08T23:25:26;100344.03;;;22.77;51.93
61136;BME280;47021;51.340;12.432;2023-09-08T23:27:51;100333.16;;;22.78;52.09
61136;BME280;47021;51.340;12.432;2023-09-08T23:30:22;100337.09;;;22.76;52.08
61136;BME280;47021;51.340;12.432;2023-09-08T23:32:47;100336.88;;;22.77;52.16
61136;BME280;47021;51.340;12.432;2023-09-08T23:35:20;100332.16;;;22.73;52.69
61136;BME280;47021;51.340;12.432;2023-09-08T23:37:45;100332.75;;;22.75;52.20
61136;BME280;47021;51.340;12.432;2023-09-08T23:40:11;100336.63;;;22.66;52.40
61136;BME280;47021;51.340;12.432;2023-09-08T23:42:48;100327.81;;;22.65;52.76
61136;BME280;47021;51.340;12.432;2023-09-08T23:45:14;100328.66;;;22.72;52.49
61136;BME280;47021;51.340;12.432;2023-09-08T23:47:46;100333.91;;;22.59;52.69
61136;BME280;47021;51.340;12.432;2023-09-08T23:50:11;100327.53;;;22.54;52.67
61136;BME280;47021;51.340;12.432;2023-09-08T23:52:37;100323.78;;;22.41;52.94
61136;BME280;47021;51.340;12.432;2023-09-08T23:55:05;100330.38;;;22.39;53.11
61136;BME280;47021;51.340;12.432;2023-09-08T23:57:36;100326.56;;;22.14;53.37
